sensor_id;sensor_type;location;lat;lon;timestamp;P1;durP1;ratioP1;P2;durP2;ratioP2
20000;SDS011;10161;41.188;-8.642;2023-03-12T00:02:09;19.27;;;8.10;;
20000;SDS011;10161;41.188;-8.642;2023-03-12T00:04:36;14.90;;;7.90;;
20000;SDS011;10161;41.188;-8.642;2023-03-12T00:07:04;20.97;;;7.80;;
20000;SDS011;10161;41.188;-8.642;2023-03-12T00:09:35;12.27;;;7.43;;
20000;SDS011;10161;41.188;-8.642;2023-03-12T00:12:02;14.77;;;9.07;;
20000;SDS011;10161;41.188;-8.642;2023-03-12T00:14:30;15.50;;;8.07;;
20000;SDS011;10161;41.188;-8.642;2023-03-12T00:16:57;14.70;;;8.17;;
20000;SDS011;10161;41.188;-8.642;2023-03-12T00:19:24;14.37;;;7.37;;
20000;SDS011;10161;41.188;-8.642;2023-03-12T00:21:52;15.03;;;7.40;;
20000;SDS011;10161;41.188;-8.642;2023-03-12T00:24:19;12.80;;;8.10;;
20000;SDS011;10161;41.188;-8.642;2023-03-12T00:26:47;10.63;;;6.90;;
20000;SDS011;10161;41.188;-8.642;2023-03-12T00:29:14;13.43;;;7.13;;
20000;SDS011;10161;41.188;-8.642;2023-03-12T00:31:41;10.63;;;6.67;;
20000;SDS011;10161;41.188;-8.642;2023-03-12T00:34:08;13.40;;;7.50;;
20000;SDS011;10161;41.188;-8.642;2023-03-12T00:36:35;13.73;;;9.23;;
20000;SDS011;10161;41.188;-8.642;2023-03-12T00:39:04;12.90;;;8.10;;
20000;SDS011;10161;41.188;-8.642;2023-03-12T00:41:31;15.27;;;8.60;;
20000;SDS011;10161;41.188;-8.642;2023-03-12T00:44:00;15.60;;;8.43;;
20000;SDS011;10161;41.188;-8.642;2023-03-12T00:46:28;11.63;;;7.90;;
20000;SDS011;10161;41.188;-8.642;2023-03-12T00:48:57;13.43;;;6.73;;
20000;SDS011;10161;41.188;-8.642;2023-03-12T00:51:25;10.47;;;7.50;;
20000;SDS011;10161;41.188;-8.642;2023-03-12T00:53:52;14.17;;;7.87;;
20000;SDS011;10161;41.188;-8.642;2023-03-12T00:56:20;10.93;;;7.30;;
20000;SDS011;10161;41.188;-8.642;2023-03-12T00:58:47;12.80;;;7.97;;
20000;SDS011;10161;41.188;-8.642;2023-03-12T01:01:16;12.37;;;7.80;;
20000;SDS011;10161;41.188;-8.642;2023-03-12T01:03:44;12.77;;;8.57;;
20000;SDS011;10161;41.188;-8.642;2023-03-12T01:06:12;14.47;;;8.93;;
20000;SDS011;10161;41.188;-8.642;2023-03-12T01:08:39;16.60;;;8.63;;
20000;SDS011;10161;41.188;-8.642;2023-03-12T01:11:07;10.40;;;7.60;;
20000;SDS011;10161;41.188;-8.642;2023-03-12T01:13:34;11.80;;;8.40;;
20000;SDS011;10161;41.188;-8.642;2023-03-12T01:16:01;8.80;;;7.00;;
20000;SDS011;10161;41.188;-8.642;2023-03-12T01:18:33;8.40;;;7.37;;
20000;SDS011;10161;41.188;-8.642;2023-03-12T01:21:01;13.00;;;8.23;;
20000;SDS011;10161;41.188;-8.642;2023-03-12T01:23:28;13.80;;;8.70;;
20000;SDS011;10161;41.188;-8.642;2023-03-12T01:25:56;10.07;;;7.53;;
20000;SDS011;10161;41.188;-8.642;2023-03-12T01:28:23;12.23;;;7.40;;
20000;SDS011;10161;41.188;-8.642;2023-03-12T01:30:51;10.47;;;8.07;;
20000;SDS011;10161;41.188;-8.642;2023-03-12T01:33:20;10.43;;;8.70;;
20000;SDS011;10161;41.188;-8.642;2023-03-12T01:35:49;13.17;;;9.30;;
20000;SDS011;10161;41.188;-8.642;2023-03-12T01:38:16;8.97;;;7.87;;
20000;SDS011;10161;41.188;-8.642;2023-03-12T01:40:45;12.43;;;8.03;;
20000;SDS011;10161;41.188;-8.642;2023-03-12T01:43:22;9.47;;;8.20;;
20000;SDS011;10161;41.188;-8.642;2023-03-12T01:46:01;12.53;;;8.77;;
20000;SDS011;10161;41.188;-8.642;2023-03-12T01:48:50;10.40;;;8.57;;
20000;SDS011;10161;41.188;-8.642;2023-03-12T01:51:21;10.87;;;7.60;;
20000;SDS011;10161;41.188;-8.642;2023-03-12T01:53:51;13.23;;;8.13;;
20000;SDS011;10161;41.188;-8.642;2023-03-12T01:56:20;13.37;;;8.57;;
20000;SDS011;10161;41.188;-8.642;2023-03-12T01:58:49;10.73;;;7.47;;
20000;SDS011;10161;41.188;-8.642;2023-03-12T02:01:18;9.23;;;7.13;;
20000;SDS011;10161;41.188;-8.642;2023-03-12T02:03:46;11.17;;;7.70;;
20000;SDS011;10161;41.188;-8.642;2023-03-12T02:06:14;11.93;;;6.93;;
20000;SDS011;10161;41.188;-8.642;2023-03-12T02:08:44;11.07;;;6.57;;
20000;SDS011;10161;41.188;-8.642;2023-03-12T02:11:11;13.50;;;7.00;;
20000;SDS011;10161;41.188;-8.642;2023-03-12T02:13:38;9.83;;;7.13;;
20000;SDS011;10161;41.188;-8.642;2023-03-12T02:16:06;11.07;;;7.40;;
20000;SDS011;10161;41.188;-8.642;2023-03-12T02:18:33;12.70;;;7.10;;
20000;SDS011;10161;41.188;-8.642;2023-03-12T02:21:03;13.47;;;7.40;;
20000;SDS011;10161;41.188;-8.642;2023-03-12T02:23:37;10.97;;;7.80;;
20000;SDS011;10161;41.188;-8.642;2023-03-12T02:26:10;12.00;;;7.10;;
20000;SDS011;10161;41.188;-8.642;2023-03-12T02:28:37;14.80;;;8.67;;
20000;SDS011;10161;41.188;-8.642;2023-03-12T02:31:09;14.33;;;8.87;;
20000;SDS011;10161;41.188;-8.642;2023-03-12T02:33:38;14.47;;;9.53;;
20000;SDS011;10161;41.188;-8.642;2023-03-12T02:36:05;12.23;;;7.97;;
20000;SDS011;10161;41.188;-8.642;2023-03-12T02:38:38;10.60;;;7.67;;
20000;SDS011;10161;41.188;-8.642;2023-03-12T02:41:21;11.60;;;8.43;;
20000;SDS011;10161;41.188;-8.642;2023-03-12T02:43:50;15.03;;;9.37;;
20000;SDS011;10161;41.188;-8.642;2023-03-12T02:46:20;11.83;;;8.07;;
20000;SDS011;10161;41.188;-8.642;2023-03-12T02:48:47;13.10;;;8.60;;
20000;SDS011;10161;41.188;-8.642;2023-03-12T02:51:15;13.03;;;7.97;;
20000;SDS011;10161;41.188;-8.642;2023-03-12T02:53:42;11.33;;;7.87;;
20000;SDS011;10161;41.188;-8.642;2023-03-12T02:56:12;14.10;;;8.67;;
20000;SDS011;10161;41.188;-8.642;2023-03-12T02:58:39;12.07;;;7.50;;
20000;SDS011;10161;41.188;-8.642;2023-03-12T03:01:07;12.43;;;8.03;;
20000;SDS011;10161;41.188;-8.642;2023-03-12T03:03:34;14.60;;;7.73;;
20000;SDS011;10161;41.188;-8.642;2023-03-12T03:06:01;14.13;;;9.53;;
20000;SDS011;10161;41.188;-8.642;2023-03-12T03:08:28;18.83;;;8.30;;
20000;SDS011;10161;41.188;-8.642;2023-03-12T03:10:55;12.93;;;8.07;;
20000;SDS011;10161;41.188;-8.642;2023-03-12T03:13:23;12.67;;;8.30;;
20000;SDS011;10161;41.188;-8.642;2023-03-12T03:15:52;12.07;;;8.60;;
20000;SDS011;10161;41.188;-8.642;2023-03-12T03:18:21;13.53;;;8.80;;
20000;SDS011;10161;41.188;-8.642;2023-03-12T03:20:53;13.97;;;8.87;;
20000;SDS011;10161;41.188;-8.642;2023-03-12T03:23:21;16.87;;;8.70;;
20000;SDS011;10161;41.188;-8.642;2023-03-12T03:25:48;15.33;;;9.63;;
20000;SDS011;10161;41.188;-8.642;2023-03-12T03:28:17;12.70;;;8.57;;
20000;SDS011;10161;41.188;-8.642;2023-03-12T03:30:45;13.60;;;9.10;;
20000;SDS011;10161;41.188;-8.642;2023-03-12T03:33:12;13.07;;;9.67;;
20000;SDS011;10161;41.188;-8.642;2023-03-12T03:35:40;12.70;;;9.47;;
20000;SDS011;10161;41.188;-8.642;2023-03-12T03:38:07;12.63;;;9.10;;
20000;SDS011;10161;41.188;-8.642;2023-03-12T03:40:34;9.43;;;7.67;;
20000;SDS011;10161;41.188;-8.642;2023-03-12T03:43:01;13.10;;;8.10;;
20000;SDS011;10161;41.188;-8.642;2023-03-12T03:45:28;17.83;;;8.80;;
20000;SDS011;10161;41.188;-8.642;2023-03-12T03:47:57;16.63;;;9.13;;
20000;SDS011;10161;41.188;-8.642;2023-03-12T03:50:24;12.30;;;8.70;;
20000;SDS011;10161;41.188;-8.642;2023-03-12T03:52:51;12.17;;;8.53;;
20000;SDS011;10161;41.188;-8.642;2023-03-12T03:55:18;17.20;;;9.90;;
20000;SDS011;10161;41.188;-8.642;2023-03-12T03:57:46;12.63;;;8.70;;
20000;SDS011;10161;41.188;-8.642;2023-03-12T04:00:14;11.90;;;8.87;;
20000;SDS011;10161;41.188;-8.642;2023-03-12T04:02:42;12.80;;;10.10;;
20000;SDS011;10161;41.188;-8.642;2023-03-12T04:05:11;17.80;;;10.30;;
20000;SDS011;10161;41.188;-8.642;2023-03-12T04:07:40;12.97;;;9.90;;
20000;SDS011;10161;41.188;-8.642;2023-03-12T04:10:07;13.63;;;9.53;;
20000;SDS011;10161;41.188;-8.642;2023-03-12T04:12:35;13.23;;;10.23;;
20000;SDS011;10161;41.188;-8.642;2023-03-12T04:15:03;10.83;;;9.60;;
20000;SDS011;10161;41.188;-8.642;2023-03-12T04:17:31;15.63;;;10.00;;
20000;SDS011;10161;41.188;-8.642;2023-03-12T04:19:58;17.40;;;10.37;;
20000;SDS011;10161;41.188;-8.642;2023-03-12T04:22:26;13.83;;;9.67;;
20000;SDS011;10161;41.188;-8.642;2023-03-12T04:24:54;17.17;;;10.10;;
20000;SDS011;10161;41.188;-8.642;2023-03-12T04:27:22;11.73;;;8.40;;
20000;SDS011;10161;41.188;-8.642;2023-03-12T04:29:49;9.63;;;8.53;;
20000;SDS011;10161;41.188;-8.642;2023-03-12T04:32:16;10.70;;;8.60;;
20000;SDS011;10161;41.188;-8.642;2023-03-12T04:34:43;11.27;;;9.40;;
20000;SDS011;10161;41.188;-8.642;2023-03-12T04:37:11;13.43;;;10.27;;
20000;SDS011;10161;41.188;-8.642;2023-03-12T04:39:40;12.37;;;9.50;;
20000;SDS011;10161;41.188;-8.642;2023-03-12T04:42:07;11.43;;;9.20;;
20000;SDS011;10161;41.188;-8.642;2023-03-12T04:44:35;13.40;;;10.00;;
20000;SDS011;10161;41.188;-8.642;2023-03-12T04:47:02;14.90;;;9.10;;
20000;SDS011;10161;41.188;-8.642;2023-03-12T04:49:30;14.10;;;9.77;;
20000;SDS011;10161;41.188;-8.642;2023-03-12T04:51:57;14.63;;;10.40;;
20000;SDS011;10161;41.188;-8.642;2023-03-12T04:54:24;14.20;;;9.40;;
20000;SDS011;10161;41.188;-8.642;2023-03-12T04:56:53;14.43;;;9.80;;
20000;SDS011;10161;41.188;-8.642;2023-03-12T04:59:20;14.30;;;10.20;;
20000;SDS011;10161;41.188;-8.642;2023-03-12T05:01:48;18.60;;;11.10;;
20000;SDS011;10161;41.188;-8.642;2023-03-12T05:04:15;17.10;;;10.00;;
20000;SDS011;10161;41.188;-8.642;2023-03-12T05:06:43;20.43;;;11.30;;
20000;SDS011;10161;41.188;-8.642;2023-03-12T05:09:10;15.10;;;9.67;;
20000;SDS011;10161;41.188;-8.642;2023-03-12T05:11:37;10.00;;;9.00;;
20000;SDS011;10161;41.188;-8.642;2023-03-12T05:14:06;10.50;;;9.23;;
20000;SDS011;10161;41.188;-8.642;2023-03-12T05:16:33;14.77;;;9.87;;
20000;SDS011;10161;41.188;-8.642;2023-03-12T05:19:00;12.53;;;9.40;;
20000;SDS011;10161;41.188;-8.642;2023-03-12T05:21:28;10.03;;;9.03;;
20000;SDS011;10161;41.188;-8.642;2023-03-12T05:23:55;13.93;;;8.63;;
20000;SDS011;10161;41.188;-8.642;2023-03-12T05:26:23;8.93;;;8.03;;
20000;SDS011;10161;41.188;-8.642;2023-03-12T05:28:51;12.13;;;9.00;;
20000;SDS011;10161;41.188;-8.642;2023-03-12T05:31:20;9.27;;;8.23;;
20000;SDS011;10161;41.188;-8.642;2023-03-12T05:33:47;10.80;;;7.77;;
20000;SDS011;10161;41.188;-8.642;2023-03-12T05:36:15;9.50;;;7.07;;
20000;SDS011;10161;41.188;-8.642;2023-03-12T05:38:42;9.30;;;6.80;;
20000;SDS011;10161;41.188;-8.642;2023-03-12T05:43:42;10.70;;;8.03;;
20000;SDS011;10161;41.188;-8.642;2023-03-12T05:46:10;8.87;;;7.60;;
20000;SDS011;10161;41.188;-8.642;2023-03-12T05:48:38;9.93;;;7.80;;
20000;SDS011;10161;41.188;-8.642;2023-03-12T05:51:06;11.57;;;8.00;;
20000;SDS011;10161;41.188;-8.642;2023-03-12T05:53:33;10.90;;;8.63;;
20000;SDS011;10161;41.188;-8.642;2023-03-12T05:56:01;10.50;;;8.17;;
20000;SDS011;10161;41.188;-8.642;2023-03-12T05:58:29;8.23;;;7.47;;
20000;SDS011;10161;41.188;-8.642;2023-03-12T06:00:56;10.50;;;7.00;;
20000;SDS011;10161;41.188;-8.642;2023-03-12T06:03:23;9.97;;;8.10;;
20000;SDS011;10161;41.188;-8.642;2023-03-12T06:05:51;8.03;;;7.23;;
20000;SDS011;10161;41.188;-8.642;2023-03-12T06:08:21;10.93;;;8.47;;
20000;SDS011;10161;41.188;-8.642;2023-03-12T06:10:49;10.27;;;7.77;;
20000;SDS011;10161;41.188;-8.642;2023-03-12T06:13:18;9.00;;;7.73;;
20000;SDS011;10161;41.188;-8.642;2023-03-12T06:15:45;9.33;;;6.50;;
20000;SDS011;10161;41.188;-8.642;2023-03-12T06:18:12;7.10;;;6.40;;
20000;SDS011;10161;41.188;-8.642;2023-03-12T06:20:39;7.07;;;6.33;;
20000;SDS011;10161;41.188;-8.642;2023-03-12T06:23:07;8.07;;;6.50;;
20000;SDS011;10161;41.188;-8.642;2023-03-12T06:25:34;9.00;;;7.27;;
20000;SDS011;10161;41.188;-8.642;2023-03-12T06:28:02;7.53;;;6.70;;
20000;SDS011;10161;41.188;-8.642;2023-03-12T06:30:29;10.50;;;7.17;;
20000;SDS011;10161;41.188;-8.642;2023-03-12T06:32:56;10.73;;;6.83;;
20000;SDS011;10161;41.188;-8.642;2023-03-12T06:35:23;10.27;;;7.53;;
20000;SDS011;10161;41.188;-8.642;2023-03-12T06:37:51;9.00;;;6.93;;
20000;SDS011;10161;41.188;-8.642;2023-03-12T06:40:20;6.77;;;5.80;;
20000;SDS011;10161;41.188;-8.642;2023-03-12T06:42:47;9.07;;;6.87;;
20000;SDS011;10161;41.188;-8.642;2023-03-12T06:45:14;9.87;;;7.33;;
20000;SDS011;10161;41.188;-8.642;2023-03-12T06:47:41;10.13;;;7.10;;
20000;SDS011;10161;41.188;-8.642;2023-03-12T06:50:09;8.90;;;8.00;;
20000;SDS011;10161;41.188;-8.642;2023-03-12T06:52:37;13.70;;;8.00;;
20000;SDS011;10161;41.188;-8.642;2023-03-12T06:55:05;12.67;;;8.50;;
20000;SDS011;10161;41.188;-8.642;2023-03-12T06:57:34;9.70;;;8.23;;
20000;SDS011;10161;41.188;-8.642;2023-03-12T07:00:01;15.63;;;7.47;;
20000;SDS011;10161;41.188;-8.642;2023-03-12T07:02:29;9.30;;;7.70;;
20000;SDS011;10161;41.188;-8.642;2023-03-12T07:04:56;10.03;;;7.77;;
20000;SDS011;10161;41.188;-8.642;2023-03-12T07:07:23;8.23;;;7.30;;
20000;SDS011;10161;41.188;-8.642;2023-03-12T07:09:50;9.60;;;7.50;;
20000;SDS011;10161;41.188;-8.642;2023-03-12T07:12:17;11.73;;;7.93;;
20000;SDS011;10161;41.188;-8.642;2023-03-12T07:14:46;10.77;;;7.83;;
20000;SDS011;10161;41.188;-8.642;2023-03-12T07:17:13;12.03;;;7.67;;
20000;SDS011;10161;41.188;-8.642;2023-03-12T07:19:40;12.60;;;8.53;;
20000;SDS011;10161;41.188;-8.642;2023-03-12T07:22:07;11.53;;;7.53;;
20000;SDS011;10161;41.188;-8.642;2023-03-12T07:24:34;9.83;;;7.73;;
20000;SDS011;10161;41.188;-8.642;2023-03-12T07:27:01;10.90;;;8.20;;
20000;SDS011;10161;41.188;-8.642;2023-03-12T07:29:29;11.30;;;8.10;;
20000;SDS011;10161;41.188;-8.642;2023-03-12T07:31:58;8.60;;;7.30;;
20000;SDS011;10161;41.188;-8.642;2023-03-12T07:34:26;10.13;;;7.20;;
20000;SDS011;10161;41.188;-8.642;2023-03-12T07:36:53;10.70;;;7.77;;
20000;SDS011;10161;41.188;-8.642;2023-03-12T07:39:20;8.37;;;6.73;;
20000;SDS011;10161;41.188;-8.642;2023-03-12T07:41:49;10.17;;;6.57;;
20000;SDS011;10161;41.188;-8.642;2023-03-12T07:44:16;9.47;;;7.50;;
20000;SDS011;10161;41.188;-8.642;2023-03-12T07:46:43;9.40;;;7.00;;
20000;SDS011;10161;41.188;-8.642;2023-03-12T07:49:12;7.77;;;6.80;;
20000;SDS011;10161;41.188;-8.642;2023-03-12T07:51:39;7.53;;;6.77;;
20000;SDS011;10161;41.188;-8.642;2023-03-12T07:54:06;9.67;;;6.90;;
20000;SDS011;10161;41.188;-8.642;2023-03-12T07:56:33;10.10;;;7.50;;
20000;SDS011;10161;41.188;-8.642;2023-03-12T07:59:00;10.30;;;7.10;;
20000;SDS011;10161;41.188;-8.642;2023-03-12T08:01:27;13.93;;;7.70;;
20000;SDS011;10161;41.188;-8.642;2023-03-12T08:03:56;11.63;;;7.90;;
20000;SDS011;10161;41.188;-8.642;2023-03-12T08:06:25;11.73;;;7.57;;
20000;SDS011;10161;41.188;-8.642;2023-03-12T08:08:52;9.03;;;7.53;;
20000;SDS011;10161;41.188;-8.642;2023-03-12T08:11:20;11.60;;;7.83;;
20000;SDS011;10161;41.188;-8.642;2023-03-12T08:13:47;15.50;;;9.30;;
20000;SDS011;10161;41.188;-8.642;2023-03-12T08:16:14;12.00;;;8.10;;
20000;SDS011;10161;41.188;-8.642;2023-03-12T08:18:42;12.63;;;8.67;;
20000;SDS011;10161;41.188;-8.642;2023-03-12T08:21:09;10.90;;;8.83;;
20000;SDS011;10161;41.188;-8.642;2023-03-12T08:23:40;13.50;;;8.03;;
20000;SDS011;10161;41.188;-8.642;2023-03-12T08:26:07;14.23;;;8.93;;
20000;SDS011;10161;41.188;-8.642;2023-03-12T08:28:34;8.70;;;7.80;;
20000;SDS011;10161;41.188;-8.642;2023-03-12T08:31:01;13.40;;;8.50;;
20000;SDS011;10161;41.188;-8.642;2023-03-12T08:33:28;16.90;;;9.63;;
20000;SDS011;10161;41.188;-8.642;2023-03-12T08:35:55;13.10;;;8.67;;
20000;SDS011;10161;41.188;-8.642;2023-03-12T08:38:23;15.20;;;9.93;;
20000;SDS011;10161;41.188;-8.642;2023-03-12T08:40:59;12.90;;;10.63;;
20000;SDS011;10161;41.188;-8.642;2023-03-12T08:43:27;10.30;;;9.20;;
20000;SDS011;10161;41.188;-8.642;2023-03-12T08:45:56;12.97;;;9.80;;
20000;SDS011;10161;41.188;-8.642;2023-03-12T08:48:23;12.00;;;10.63;;
20000;SDS011;10161;41.188;-8.642;2023-03-12T08:50:53;15.73;;;10.20;;
20000;SDS011;10161;41.188;-8.642;2023-03-12T08:53:21;11.30;;;8.70;;
20000;SDS011;10161;41.188;-8.642;2023-03-12T08:55:50;11.23;;;8.83;;
20000;SDS011;10161;41.188;-8.642;2023-03-12T08:58:31;10.73;;;9.60;;
20000;SDS011;10161;41.188;-8.642;2023-03-12T09:00:58;10.93;;;8.90;;
20000;SDS011;10161;41.188;-8.642;2023-03-12T09:03:25;14.60;;;10.43;;
20000;SDS011;10161;41.188;-8.642;2023-03-12T09:06:01;12.13;;;8.63;;
20000;SDS011;10161;41.188;-8.642;2023-03-12T09:08:30;17.63;;;10.03;;
20000;SDS011;10161;41.188;-8.642;2023-03-12T09:10:58;17.37;;;9.80;;
20000;SDS011;10161;41.188;-8.642;2023-03-12T09:13:27;13.37;;;9.70;;
20000;SDS011;10161;41.188;-8.642;2023-03-12T09:15:57;14.90;;;10.10;;
20000;SDS011;10161;41.188;-8.642;2023-03-12T09:18:25;13.27;;;8.77;;
20000;SDS011;10161;41.188;-8.642;2023-03-12T09:20:52;12.10;;;9.10;;
20000;SDS011;10161;41.188;-8.642;2023-03-12T09:23:19;12.07;;;8.50;;
20000;SDS011;10161;41.188;-8.642;2023-03-12T09:25:46;18.50;;;9.60;;
20000;SDS011;10161;41.188;-8.642;2023-03-12T09:28:13;11.80;;;8.87;;
20000;SDS011;10161;41.188;-8.642;2023-03-12T09:30:42;10.40;;;7.77;;
20000;SDS011;10161;41.188;-8.642;2023-03-12T09:33:09;10.63;;;6.97;;
20000;SDS011;10161;41.188;-8.642;2023-03-12T09:35:37;11.10;;;7.33;;
20000;SDS011;10161;41.188;-8.642;2023-03-12T09:38:04;14.43;;;7.90;;
20000;SDS011;10161;41.188;-8.642;2023-03-12T09:40:32;11.80;;;7.50;;
20000;SDS011;10161;41.188;-8.642;2023-03-12T09:43:03;13.03;;;7.87;;
20000;SDS011;10161;41.188;-8.642;2023-03-12T09:45:34;13.30;;;7.10;;
20000;SDS011;10161;41.188;-8.642;2023-03-12T09:48:09;10.70;;;7.00;;
20000;SDS011;10161;41.188;-8.642;2023-03-12T09:50:40;10.33;;;7.10;;
20000;SDS011;10161;41.188;-8.642;2023-03-12T09:53:09;12.53;;;9.00;;
20000;SDS011;10161;41.188;-8.642;2023-03-12T09:55:39;13.53;;;8.20;;
20000;SDS011;10161;41.188;-8.642;2023-03-12T09:58:09;13.47;;;8.03;;
20000;SDS011;10161;41.188;-8.642;2023-03-12T10:00:38;16.40;;;8.80;;
20000;SDS011;10161;41.188;-8.642;2023-03-12T10:06:01;15.87;;;8.40;;
20000;SDS011;10161;41.188;-8.642;2023-03-12T10:08:37;17.77;;;8.50;;
20000;SDS011;10161;41.188;-8.642;2023-03-12T10:11:14;14.40;;;8.37;;
20000;SDS011;10161;41.188;-8.642;2023-03-12T10:13:49;18.60;;;8.27;;
20000;SDS011;10161;41.188;-8.642;2023-03-12T10:16:29;16.40;;;7.63;;
20000;SDS011;10161;41.188;-8.642;2023-03-12T10:19:04;15.13;;;6.87;;
20000;SDS011;10161;41.188;-8.642;2023-03-12T10:21:40;26.60;;;8.87;;
20000;SDS011;10161;41.188;-8.642;2023-03-12T10:24:19;25.40;;;9.60;;
20000;SDS011;10161;41.188;-8.642;2023-03-12T10:26:53;30.93;;;10.90;;
20000;SDS011;10161;41.188;-8.642;2023-03-12T10:29:21;33.10;;;10.23;;
20000;SDS011;10161;41.188;-8.642;2023-03-12T10:31:52;26.70;;;10.10;;
20000;SDS011;10161;41.188;-8.642;2023-03-12T10:34:24;27.33;;;10.47;;
20000;SDS011;10161;41.188;-8.642;2023-03-12T10:36:57;26.00;;;10.20;;
20000;SDS011;10161;41.188;-8.642;2023-03-12T10:39:26;27.80;;;11.07;;
20000;SDS011;10161;41.188;-8.642;2023-03-12T10:41:53;24.87;;;10.80;;
20000;SDS011;10161;41.188;-8.642;2023-03-12T10:44:21;28.60;;;10.87;;
20000;SDS011;10161;41.188;-8.642;2023-03-12T10:46:51;27.23;;;9.80;;
20000;SDS011;10161;41.188;-8.642;2023-03-12T10:49:27;25.50;;;10.93;;
20000;SDS011;10161;41.188;-8.642;2023-03-12T10:51:56;29.03;;;11.20;;
20000;SDS011;10161;41.188;-8.642;2023-03-12T10:54:30;31.83;;;11.90;;
20000;SDS011;10161;41.188;-8.642;2023-03-12T10:56:58;27.63;;;10.60;;
20000;SDS011;10161;41.188;-8.642;2023-03-12T10:59:26;27.00;;;8.90;;
20000;SDS011;10161;41.188;-8.642;2023-03-12T11:01:55;25.60;;;10.27;;
20000;SDS011;10161;41.188;-8.642;2023-03-12T11:04:23;24.33;;;9.10;;
20000;SDS011;10161;41.188;-8.642;2023-03-12T11:07:06;28.47;;;10.60;;
20000;SDS011;10161;41.188;-8.642;2023-03-12T11:09:42;21.07;;;8.87;;
20000;SDS011;10161;41.188;-8.642;2023-03-12T11:12:23;22.20;;;10.30;;
20000;SDS011;10161;41.188;-8.642;2023-03-12T11:14:52;28.80;;;10.60;;
20000;SDS011;10161;41.188;-8.642;2023-03-12T11:17:20;23.63;;;10.93;;
20000;SDS011;10161;41.188;-8.642;2023-03-12T11:19:47;27.57;;;10.03;;
20000;SDS011;10161;41.188;-8.642;2023-03-12T11:22:25;25.03;;;9.90;;
20000;SDS011;10161;41.188;-8.642;2023-03-12T11:24:55;20.93;;;10.20;;
20000;SDS011;10161;41.188;-8.642;2023-03-12T11:27:26;22.13;;;9.87;;
20000;SDS011;10161;41.188;-8.642;2023-03-12T11:29:59;24.97;;;10.63;;
20000;SDS011;10161;41.188;-8.642;2023-03-12T11:32:32;22.73;;;11.27;;
20000;SDS011;10161;41.188;-8.642;2023-03-12T11:35:01;19.97;;;9.17;;
20000;SDS011;10161;41.188;-8.642;2023-03-12T11:37:34;26.30;;;10.97;;
20000;SDS011;10161;41.188;-8.642;2023-03-12T11:40:07;19.77;;;10.60;;
20000;SDS011;10161;41.188;-8.642;2023-03-12T11:42:45;19.87;;;9.30;;
20000;SDS011;10161;41.188;-8.642;2023-03-12T11:45:21;20.50;;;9.70;;
20000;SDS011;10161;41.188;-8.642;2023-03-12T11:47:58;25.53;;;10.13;;
20000;SDS011;10161;41.188;-8.642;2023-03-12T11:50:39;22.13;;;9.27;;
20000;SDS011;10161;41.188;-8.642;2023-03-12T11:53:25;17.87;;;9.17;;
20000;SDS011;10161;41.188;-8.642;2023-03-12T11:58:53;12.80;;;6.37;;
20000;SDS011;10161;41.188;-8.642;2023-03-12T12:01:29;19.40;;;6.90;;
20000;SDS011;10161;41.188;-8.642;2023-03-12T12:04:09;19.23;;;6.90;;
20000;SDS011;10161;41.188;-8.642;2023-03-12T12:06:45;14.97;;;6.70;;
20000;SDS011;10161;41.188;-8.642;2023-03-12T12:09:22;12.07;;;6.13;;
20000;SDS011;10161;41.188;-8.642;2023-03-12T12:11:57;10.70;;;6.10;;
20000;SDS011;10161;41.188;-8.642;2023-03-12T12:17:31;14.50;;;6.50;;
20000;SDS011;10161;41.188;-8.642;2023-03-12T12:20:12;11.60;;;5.77;;
20000;SDS011;10161;41.188;-8.642;2023-03-12T12:22:48;9.50;;;5.20;;
20000;SDS011;10161;41.188;-8.642;2023-03-12T12:28:20;10.93;;;5.27;;
20000;SDS011;10161;41.188;-8.642;2023-03-12T12:31:00;12.57;;;6.00;;
20000;SDS011;10161;41.188;-8.642;2023-03-12T12:33:36;10.27;;;5.60;;
20000;SDS011;10161;41.188;-8.642;2023-03-12T12:36:11;16.70;;;5.30;;
20000;SDS011;10161;41.188;-8.642;2023-03-12T12:38:39;13.13;;;4.83;;
20000;SDS011;10161;41.188;-8.642;2023-03-12T12:41:10;11.50;;;4.63;;
20000;SDS011;10161;41.188;-8.642;2023-03-12T12:43:41;6.87;;;3.60;;
20000;SDS011;10161;41.188;-8.642;2023-03-12T12:46:11;8.97;;;4.80;;
20000;SDS011;10161;41.188;-8.642;2023-03-12T12:48:42;12.33;;;4.93;;
20000;SDS011;10161;41.188;-8.642;2023-03-12T12:51:12;11.17;;;4.77;;
20000;SDS011;10161;41.188;-8.642;2023-03-12T12:53:43;8.47;;;4.30;;
20000;SDS011;10161;41.188;-8.642;2023-03-12T12:56:16;8.70;;;4.20;;
20000;SDS011;10161;41.188;-8.642;2023-03-12T12:58:55;9.00;;;4.20;;
20000;SDS011;10161;41.188;-8.642;2023-03-12T13:01:27;10.17;;;4.90;;
20000;SDS011;10161;41.188;-8.642;2023-03-12T13:03:56;11.60;;;4.90;;
20000;SDS011;10161;41.188;-8.642;2023-03-12T13:06:27;8.83;;;4.40;;
20000;SDS011;10161;41.188;-8.642;2023-03-12T13:08:57;8.17;;;4.23;;
20000;SDS011;10161;41.188;-8.642;2023-03-12T13:11:39;14.03;;;5.17;;
20000;SDS011;10161;41.188;-8.642;2023-03-12T13:14:18;7.43;;;3.93;;
20000;SDS011;10161;41.188;-8.642;2023-03-12T13:16:47;8.73;;;4.47;;
20000;SDS011;10161;41.188;-8.642;2023-03-12T13:22:08;8.90;;;4.10;;
20000;SDS011;10161;41.188;-8.642;2023-03-12T13:24:42;7.57;;;4.10;;
20000;SDS011;10161;41.188;-8.642;2023-03-12T13:27:15;10.10;;;4.90;;
20000;SDS011;10161;41.188;-8.642;2023-03-12T13:29:44;13.53;;;4.90;;
20000;SDS011;10161;41.188;-8.642;2023-03-12T13:35:32;7.83;;;4.00;;
20000;SDS011;10161;41.188;-8.642;2023-03-12T13:38:04;8.47;;;3.70;;
20000;SDS011;10161;41.188;-8.642;2023-03-12T13:40:33;11.37;;;3.87;;
20000;SDS011;10161;41.188;-8.642;2023-03-12T13:43:31;11.70;;;4.40;;
20000;SDS011;10161;41.188;-8.642;2023-03-12T13:46:06;7.57;;;3.90;;
20000;SDS011;10161;41.188;-8.642;2023-03-12T13:48:37;10.83;;;6.80;;
20000;SDS011;10161;41.188;-8.642;2023-03-12T13:51:11;9.20;;;4.50;;
20000;SDS011;10161;41.188;-8.642;2023-03-12T13:53:42;7.70;;;4.13;;
20000;SDS011;10161;41.188;-8.642;2023-03-12T13:56:13;11.90;;;3.53;;
20000;SDS011;10161;41.188;-8.642;2023-03-12T13:58:46;8.00;;;3.20;;
20000;SDS011;10161;41.188;-8.642;2023-03-12T14:01:15;5.60;;;3.30;;
20000;SDS011;10161;41.188;-8.642;2023-03-12T14:03:44;9.43;;;4.03;;
20000;SDS011;10161;41.188;-8.642;2023-03-12T14:06:15;7.47;;;3.60;;
20000;SDS011;10161;41.188;-8.642;2023-03-12T14:08:47;12.00;;;4.00;;
20000;SDS011;10161;41.188;-8.642;2023-03-12T14:11:26;8.60;;;4.20;;
20000;SDS011;10161;41.188;-8.642;2023-03-12T14:14:11;15.00;;;5.13;;
20000;SDS011;10161;41.188;-8.642;2023-03-12T14:16:48;8.90;;;3.20;;
20000;SDS011;10161;41.188;-8.642;2023-03-12T14:19:18;9.33;;;3.37;;
20000;SDS011;10161;41.188;-8.642;2023-03-12T14:21:48;6.07;;;2.37;;
20000;SDS011;10161;41.188;-8.642;2023-03-12T14:24:22;6.80;;;3.00;;
20000;SDS011;10161;41.188;-8.642;2023-03-12T14:26:51;9.20;;;4.20;;
20000;SDS011;10161;41.188;-8.642;2023-03-12T14:29:22;7.70;;;2.87;;
20000;SDS011;10161;41.188;-8.642;2023-03-12T14:31:54;12.47;;;5.30;;
20000;SDS011;10161;41.188;-8.642;2023-03-12T14:34:23;8.87;;;3.70;;
20000;SDS011;10161;41.188;-8.642;2023-03-12T14:36:54;7.67;;;3.27;;
20000;SDS011;10161;41.188;-8.642;2023-03-12T14:39:26;8.00;;;3.50;;
20000;SDS011;10161;41.188;-8.642;2023-03-12T14:41:55;3.40;;;2.40;;
20000;SDS011;10161;41.188;-8.642;2023-03-12T14:44:27;7.53;;;2.43;;
20000;SDS011;10161;41.188;-8.642;2023-03-12T14:46:56;7.70;;;2.50;;
20000;SDS011;10161;41.188;-8.642;2023-03-12T14:49:24;6.57;;;3.30;;
20000;SDS011;10161;41.188;-8.642;2023-03-12T14:51:53;6.10;;;2.83;;
20000;SDS011;10161;41.188;-8.642;2023-03-12T14:54:25;24.63;;;18.83;;
20000;SDS011;10161;41.188;-8.642;2023-03-12T14:56:52;6.07;;;3.17;;
20000;SDS011;10161;41.188;-8.642;2023-03-12T14:59:25;10.73;;;4.07;;